createdAt,value
2018-01-10T00:01:00.242Z,100436.22
2018-01-10T00:03:27.643Z,100429.30
2018-01-10T00:05:55.058Z,100430.36
2018-01-10T00:08:22.454Z,100433.17
2018-01-10T00:10:49.850Z,100432.45
2018-01-10T00:13:17.250Z,100437.16
2018-01-10T00:15:44.646Z,100444.37
2018-01-10T00:18:12.047Z,100437.57
2018-01-10T00:20:39.452Z,100439.83
2018-01-10T00:23:06.826Z,100440.46
2018-01-10T00:25:34.230Z,100446.27
2018-01-10T00:28:01.618Z,100446.94
2018-01-10T00:30:29.018Z,100446.55
2018-01-10T00:32:56.441Z,100447.61
2018-01-10T00:35:23.850Z,100444.49
2018-01-10T00:37:51.239Z,100442.84
2018-01-10T00:40:18.643Z,100446.89
2018-01-10T00:42:46.032Z,100430.42
2018-01-10T00:45:13.464Z,100435.34
2018-01-10T00:47:40.878Z,100426.16
2018-01-10T00:50:08.294Z,100422.67
2018-01-10T00:52:35.749Z,100416.86
2018-01-10T00:55:03.153Z,100421.34
2018-01-10T00:57:30.627Z,100422.65
2018-01-10T00:59:58.012Z,100423.67
2018-01-10T01:02:25.416Z,100432.73
2018-01-10T01:04:52.807Z,100436.04
2018-01-10T01:07:20.240Z,100440.81
2018-01-10T01:09:47.611Z,100434.45
2018-01-10T01:12:15.045Z,100434.03
2018-01-10T01:14:42.418Z,100434.45
2018-01-10T01:17:09.822Z,100434.78
2018-01-10T01:19:37.219Z,100432.97
2018-01-10T01:22:04.628Z,100436.09
2018-01-10T01:24:32.117Z,100439.42
2018-01-10T01:26:59.537Z,100438.19
2018-01-10T01:29:27.026Z,100434.92
2018-01-10T01:31:54.438Z,100434.14
2018-01-10T01:34:21.839Z,100440.52
2018-01-10T01:36:49.229Z,100441.29
2018-01-10T01:39:16.621Z,100446.20
2018-01-10T01:41:44.027Z,100447.11
2018-01-10T01:44:11.426Z,100445.11
2018-01-10T01:46:38.919Z,100438.84
2018-01-10T01:49:06.306Z,100441.83
2018-01-10T01:51:33.709Z,100447.58
2018-01-10T01:54:01.120Z,100437.83
2018-01-10T01:56:28.498Z,100436.38
2018-01-10T01:58:55.910Z,100431.98
2018-01-10T02:01:23.319Z,100421.91
2018-01-10T02:03:50.723Z,100424.75
2018-01-10T02:06:18.162Z,100423.24
2018-01-10T02:08:45.547Z,100423.66
2018-01-10T02:11:12.938Z,100412.20
2018-01-10T02:13:40.347Z,100410.20
2018-01-10T02:16:07.738Z,100416.17
2018-01-10T02:18:35.249Z,100414.39
2018-01-10T02:21:02.627Z,100408.42
2018-01-10T02:23:30.031Z,100401.09
2018-01-10T02:25:57.420Z,100393.17
2018-01-10T02:28:24.826Z,100396.70
2018-01-10T02:30:52.226Z,100394.56
2018-01-10T02:33:19.626Z,100395.73
2018-01-10T02:35:47.022Z,100404.48
2018-01-10T02:38:14.415Z,100395.50
2018-01-10T02:40:41.814Z,100392.61
2018-01-10T02:43:09.288Z,100386.95
2018-01-10T02:45:36.682Z,100393.89
2018-01-10T02:48:04.087Z,100392.41
2018-01-10T02:50:31.491Z,100388.16
2018-01-10T02:52:58.899Z,100395.65
2018-01-10T02:55:26.299Z,100391.70
2018-01-10T02:57:53.694Z,100389.82
2018-01-10T03:00:21.090Z,100392.42
2018-01-10T03:02:48.526Z,100393.64
2018-01-10T03:05:15.941Z,100391.25
2018-01-10T03:07:43.335Z,100398.92
2018-01-10T03:10:10.734Z,100391.08
2018-01-10T03:12:38.130Z,100392.26
2018-01-10T03:15:05.535Z,100391.33
2018-01-10T03:17:32.963Z,100389.86
2018-01-10T03:20:00.364Z,100378.69
2018-01-10T03:22:27.757Z,100380.23
2018-01-10T03:24:55.174Z,100380.95
2018-01-10T03:27:22.551Z,100383.03
2018-01-10T03:29:49.952Z,100383.03
2018-01-10T03:32:17.356Z,100383.83
2018-01-10T03:34:44.761Z,100381.52
2018-01-10T03:37:12.161Z,100385.66
2018-01-10T03:39:39.559Z,100394.91
2018-01-10T03:42:06.946Z,100389.30
2018-01-10T03:44:34.362Z,100393.22
2018-01-10T03:47:01.756Z,100397.44
2018-01-10T03:49:29.152Z,100389.52
2018-01-10T03:51:56.554Z,100385.67
2018-01-10T03:54:23.946Z,100387.69
2018-01-10T03:56:51.350Z,100393.50
2018-01-10T03:59:18.750Z,100392.59
2018-01-10T04:01:46.161Z,100386.03
2018-01-10T04:04:13.548Z,100387.84
2018-01-10T04:06:40.951Z,100377.06
2018-01-10T04:09:08.351Z,100384.48
2018-01-10T04:11:35.747Z,100374.70
2018-01-10T04:14:03.134Z,100373.86
2018-01-10T04:16:30.554Z,100376.75
2018-01-10T04:18:57.955Z,100369.03
2018-01-10T04:21:25.358Z,100370.68
2018-01-10T04:23:52.756Z,100372.66
2018-01-10T04:26:20.177Z,100374.06
2018-01-10T04:28:47.562Z,100375.70
2018-01-10T04:31:14.974Z,100375.45
2018-01-10T04:33:42.354Z,100379.52
2018-01-10T04:36:09.757Z,100372.95
2018-01-10T04:38:37.152Z,100382.56
2018-01-10T04:41:04.564Z,100379.87
2018-01-10T04:43:31.958Z,100381.30
2018-01-10T04:45:59.355Z,100386.14
2018-01-10T04:48:26.776Z,100381.42
2018-01-10T04:50:54.274Z,100381.75
2018-01-10T04:53:21.683Z,100382.84
2018-01-10T04:55:49.077Z,100374.28
2018-01-10T04:58:16.479Z,100376.50
2018-01-10T05:00:43.880Z,100384.83
2018-01-10T05:03:11.279Z,100377.95
2018-01-10T05:05:38.674Z,100385.70
2018-01-10T05:08:06.076Z,100379.16
2018-01-10T05:10:33.511Z,100376.63
2018-01-10T05:13:00.912Z,100378.76
2018-01-10T05:15:28.316Z,100376.81
2018-01-10T05:17:55.720Z,100367.77
2018-01-10T05:20:23.118Z,100376.27
2018-01-10T05:22:50.522Z,100369.88
2018-01-10T05:25:17.906Z,100377.47
2018-01-10T05:27:45.315Z,100375.28
2018-01-10T05:30:12.794Z,100374.52
2018-01-10T05:32:40.162Z,100378.09
2018-01-10T05:35:07.548Z,100377.21
2018-01-10T05:37:34.958Z,100373.44
2018-01-10T05:40:02.358Z,100379.08
2018-01-10T05:42:29.749Z,100374.62
2018-01-10T05:44:57.145Z,100363.67
2018-01-10T05:47:24.542Z,100362.64
2018-01-10T05:49:51.946Z,100362.87
2018-01-10T05:52:19.334Z,100362.03
2018-01-10T05:54:46.731Z,100367.53
2018-01-10T05:57:14.125Z,100364.70
2018-01-10T05:59:41.532Z,100362.86
2018-01-10T06:02:08.931Z,100364.91
2018-01-10T06:04:36.326Z,100371.96
2018-01-10T06:07:03.727Z,100362.30
2018-01-10T06:09:31.137Z,100369.72
2018-01-10T06:11:58.579Z,100368.66
2018-01-10T06:14:25.982Z,100369.08
2018-01-10T06:16:53.377Z,100366.47
2018-01-10T06:19:20.815Z,100368.86
2018-01-10T06:21:48.200Z,100360.30
2018-01-10T06:24:15.607Z,100362.87
2018-01-10T06:26:42.999Z,100358.58
2018-01-10T06:29:10.423Z,100365.56
2018-01-10T06:31:37.823Z,100373.69
2018-01-10T06:34:05.218Z,100375.88
2018-01-10T06:36:32.622Z,100369.42
2018-01-10T06:39:00.017Z,100367.31
2018-01-10T06:41:27.419Z,100365.63
2018-01-10T06:43:54.811Z,100371.36
2018-01-10T06:46:22.216Z,100369.72
2018-01-10T06:48:49.607Z,100373.42
2018-01-10T06:51:17.005Z,100371.22
2018-01-10T06:53:44.408Z,100369.03
2018-01-10T06:56:11.859Z,100379.20
2018-01-10T06:58:39.235Z,100379.23
2018-01-10T07:01:06.643Z,100376.78
2018-01-10T07:03:34.045Z,100383.73
2018-01-10T07:06:01.434Z,100385.60
2018-01-10T07:08:28.822Z,100381.30
2018-01-10T07:10:56.224Z,100385.29
2018-01-10T07:13:23.619Z,100383.09
2018-01-10T07:15:51.027Z,100383.66
2018-01-10T07:18:18.426Z,100388.21
2018-01-10T07:20:45.846Z,100380.96
2018-01-10T07:23:13.236Z,100376.81
2018-01-10T07:25:40.645Z,100385.50
2018-01-10T07:28:08.039Z,100390.06
2018-01-10T07:30:35.434Z,100387.21
2018-01-10T07:33:02.843Z,100383.91
2018-01-10T07:35:30.239Z,100380.41
2018-01-10T07:37:57.641Z,100383.16
2018-01-10T07:40:25.031Z,100383.31
2018-01-10T07:42:52.435Z,100378.88
2018-01-10T07:45:19.856Z,100378.45
2018-01-10T07:47:47.255Z,100375.92
2018-01-10T07:50:14.647Z,100372.37
2018-01-10T07:52:42.050Z,100373.64
2018-01-10T07:55:09.450Z,100381.20
2018-01-10T07:57:36.846Z,100383.83
2018-01-10T08:00:04.241Z,100387.14
2018-01-10T08:02:31.645Z,100385.16
2018-01-10T08:04:59.043Z,100393.08
2018-01-10T08:07:26.455Z,100389.99
2018-01-10T08:09:53.847Z,100396.16
2018-01-10T08:12:21.252Z,100393.44
2018-01-10T08:14:48.645Z,100389.64
2018-01-10T08:17:16.059Z,100393.66
2018-01-10T08:19:43.450Z,100389.41
2018-01-10T08:22:10.841Z,100388.34
2018-01-10T08:24:38.238Z,100384.97
2018-01-10T08:27:05.635Z,100386.90
2018-01-10T08:29:33.041Z,100382.52
2018-01-10T08:32:00.435Z,100383.41
2018-01-10T08:34:28.798Z,100381.67
2018-01-10T08:36:56.186Z,100377.94
2018-01-10T08:39:23.594Z,100375.89
2018-01-10T08:41:50.987Z,100376.48
2018-01-10T08:44:18.388Z,100377.96
2018-01-10T08:46:45.784Z,100388.16
2018-01-10T08:49:13.191Z,100382.76
2018-01-10T08:51:40.582Z,100393.47
2018-01-10T08:54:07.984Z,100393.55
2018-01-10T08:56:35.375Z,100390.98
2018-01-10T08:59:02.783Z,100391.59
2018-01-10T09:01:30.267Z,100389.00
2018-01-10T09:03:57.667Z,100393.04
2018-01-10T09:06:25.711Z,100389.95
2018-01-10T09:08:53.113Z,100395.35
2018-01-10T09:11:20.508Z,100397.69
2018-01-10T09:13:47.910Z,100398.20
2018-01-10T09:16:15.303Z,100403.52
2018-01-10T09:18:42.706Z,100398.27
2018-01-10T09:21:10.103Z,100391.53
2018-01-10T09:23:37.491Z,100395.22
2018-01-10T09:26:04.891Z,100396.03
2018-01-10T09:28:32.287Z,100395.53
2018-01-10T09:30:59.701Z,100401.81
2018-01-10T09:33:27.104Z,100394.93
2018-01-10T09:35:54.510Z,100398.95
2018-01-10T09:38:21.913Z,100396.33
2018-01-10T09:40:49.311Z,100393.73
2018-01-10T09:43:16.710Z,100395.45
2018-01-10T09:45:44.133Z,100401.61
2018-01-10T09:48:11.523Z,100391.86
2018-01-10T09:50:38.922Z,100393.90
2018-01-10T09:53:06.315Z,100394.72
2018-01-10T09:55:33.727Z,100400.25
2018-01-10T09:58:01.119Z,100399.96
2018-01-10T10:00:28.539Z,100399.16
2018-01-10T10:02:55.936Z,100397.97
2018-01-10T10:05:23.346Z,100392.72
2018-01-10T10:07:50.748Z,100399.05
2018-01-10T10:10:18.164Z,100399.08
2018-01-10T10:12:46.351Z,100394.93
2018-01-10T10:15:13.750Z,100394.22
2018-01-10T10:17:41.207Z,100393.73
2018-01-10T10:20:08.611Z,100391.23
2018-01-10T10:22:36.011Z,100400.00
2018-01-10T10:25:03.402Z,100393.91
2018-01-10T10:27:30.801Z,100391.06
2018-01-10T10:29:58.195Z,100388.69
2018-01-10T10:32:25.634Z,100388.21
2018-01-10T10:34:53.030Z,100386.08
2018-01-10T10:37:20.431Z,100382.39
2018-01-10T10:39:47.853Z,100378.75
2018-01-10T10:42:15.240Z,100387.00
2018-01-10T10:44:42.722Z,100396.92
2018-01-10T10:47:10.094Z,100388.03
2018-01-10T10:49:37.498Z,100390.42
2018-01-10T10:52:04.902Z,100389.76
2018-01-10T10:54:32.295Z,100382.59
2018-01-10T10:56:59.712Z,100386.38
2018-01-10T10:59:27.111Z,100391.97
2018-01-10T11:01:54.516Z,100389.56
2018-01-10T11:04:21.965Z,100382.29
2018-01-10T11:06:49.353Z,100380.00
2018-01-10T11:09:16.751Z,100374.22
2018-01-10T11:11:44.143Z,100377.03
2018-01-10T11:14:11.584Z,100372.02
2018-01-10T11:16:39.886Z,100372.34
2018-01-10T11:19:07.291Z,100371.04
2018-01-10T11:21:34.697Z,100361.23
2018-01-10T11:24:02.119Z,100358.76
2018-01-10T11:26:29.515Z,100357.77
2018-01-10T11:28:56.919Z,100351.44
2018-01-10T11:31:24.323Z,100356.90
2018-01-10T11:33:51.726Z,100350.97
2018-01-10T11:36:19.118Z,100354.31
2018-01-10T11:38:46.540Z,100349.77
2018-01-10T11:41:14.007Z,100344.33
2018-01-10T11:43:41.730Z,100346.67
2018-01-10T11:46:09.122Z,100339.55
2018-01-10T11:48:36.541Z,100339.38
2018-01-10T11:51:03.927Z,100332.77
2018-01-10T11:53:31.321Z,100324.66
2018-01-10T11:55:58.718Z,100326.50
2018-01-10T11:58:26.111Z,100327.86
2018-01-10T12:00:53.524Z,100323.91
2018-01-10T12:03:20.926Z,100322.86
2018-01-10T12:05:48.343Z,100328.78
2018-01-10T12:08:15.743Z,100323.04
2018-01-10T12:10:43.140Z,100319.95
2018-01-10T12:13:10.534Z,100325.48
2018-01-10T12:15:37.933Z,100327.65
2018-01-10T12:18:05.326Z,100318.22
2018-01-10T12:20:32.799Z,100318.09
2018-01-10T12:23:00.254Z,100321.20
2018-01-10T12:25:27.658Z,100324.72
2018-01-10T12:27:55.051Z,100320.23
2018-01-10T12:30:22.614Z,100322.20
2018-01-10T12:32:49.990Z,100327.57
2018-01-10T12:35:17.395Z,100312.83
2018-01-10T12:37:44.796Z,100308.92
2018-01-10T12:40:12.185Z,100311.33
2018-01-10T12:42:39.598Z,100312.58
2018-01-10T12:45:07.003Z,100313.49
2018-01-10T12:47:34.397Z,100312.28
2018-01-10T12:50:01.790Z,100307.99
2018-01-10T12:52:29.199Z,100318.56
2018-01-10T12:54:56.590Z,100315.90
2018-01-10T12:57:24.002Z,100307.23
2018-01-10T12:59:51.401Z,100312.39
2018-01-10T13:02:18.817Z,100314.27
2018-01-10T13:04:46.225Z,100312.59
2018-01-10T13:07:13.672Z,100315.59
2018-01-10T13:09:41.064Z,100320.66
2018-01-10T13:12:08.462Z,100320.78
2018-01-10T13:14:35.855Z,100308.36
2018-01-10T13:17:03.263Z,100312.61
2018-01-10T13:19:30.662Z,100317.55
2018-01-10T13:21:58.067Z,100312.60
2018-01-10T13:24:25.519Z,100310.66
2018-01-10T13:26:52.930Z,100314.67
2018-01-10T13:29:20.319Z,100311.51
2018-01-10T13:31:47.721Z,100317.17
2018-01-10T13:34:15.146Z,100313.58
2018-01-10T13:36:42.534Z,100322.37
2018-01-10T13:39:09.937Z,100316.83
2018-01-10T13:41:37.321Z,100318.00
2018-01-10T13:44:04.735Z,100321.71
2018-01-10T13:46:32.156Z,100317.59
2018-01-10T13:48:59.561Z,100320.80
2018-01-10T13:51:26.959Z,100328.69
2018-01-10T13:53:54.359Z,100331.81
2018-01-10T13:56:21.770Z,100334.30
2018-01-10T13:58:49.181Z,100333.40
2018-01-10T14:01:16.595Z,100341.28
2018-01-10T14:03:44.000Z,100339.96
2018-01-10T14:06:11.395Z,100344.89
2018-01-10T14:08:38.800Z,100345.47
2018-01-10T14:11:06.192Z,100344.88
2018-01-10T14:13:33.599Z,100339.94
2018-01-10T14:16:01.107Z,100346.27
2018-01-10T14:18:28.510Z,100350.34
2018-01-10T14:20:55.915Z,100347.16
2018-01-10T14:23:23.315Z,100348.56
2018-01-10T14:25:50.722Z,100346.45
2018-01-10T14:28:18.142Z,100350.48
2018-01-10T14:30:45.704Z,100345.02
2018-01-10T14:33:13.043Z,100347.29
2018-01-10T14:35:40.546Z,100353.13
2018-01-10T14:38:07.950Z,100343.83
2018-01-10T14:40:35.347Z,100349.58
2018-01-10T14:43:02.740Z,100352.02
2018-01-10T14:45:30.171Z,100360.80
2018-01-10T14:47:57.567Z,100362.48
2018-01-10T14:50:24.963Z,100362.89
2018-01-10T14:52:52.367Z,100363.84
2018-01-10T14:55:19.782Z,100363.80
2018-01-10T14:57:47.178Z,100356.95
2018-01-10T15:00:14.575Z,100362.48
2018-01-10T15:02:41.975Z,100365.09
2018-01-10T15:05:09.398Z,100368.68
2018-01-10T15:07:36.786Z,100361.61
2018-01-10T15:10:04.202Z,100363.83
2018-01-10T15:12:31.696Z,100357.55
2018-01-10T15:14:59.098Z,100356.67
2018-01-10T15:17:26.506Z,100356.16
2018-01-10T15:19:53.954Z,100362.34
2018-01-10T15:22:21.407Z,100370.44
2018-01-10T15:24:49.705Z,100373.78
2018-01-10T15:27:17.095Z,100380.40
2018-01-10T15:29:44.498Z,100376.98
2018-01-10T15:32:11.899Z,100376.28
2018-01-10T15:34:39.310Z,100375.34
2018-01-10T15:37:06.699Z,100368.86
2018-01-10T15:39:34.086Z,100382.42
2018-01-10T15:42:01.512Z,100401.22
2018-01-10T15:44:28.902Z,100408.19
2018-01-10T15:46:56.311Z,100407.05
2018-01-10T15:49:23.707Z,100407.50
2018-01-10T15:51:51.190Z,100404.53
2018-01-10T15:54:18.579Z,100406.32
2018-01-10T15:56:45.997Z,100413.18
2018-01-10T15:59:13.392Z,100414.93
2018-01-10T16:01:40.818Z,100410.89
2018-01-10T16:04:08.215Z,100412.83
2018-01-10T16:06:35.623Z,100403.90
2018-01-10T16:09:03.024Z,100404.66
2018-01-10T16:11:30.427Z,100406.98
2018-01-10T16:13:57.832Z,100408.85
2018-01-10T16:16:25.282Z,100412.59
2018-01-10T16:18:52.673Z,100410.07
2018-01-10T16:21:20.162Z,100412.28
2018-01-10T16:23:47.554Z,100412.02
2018-01-10T16:26:14.938Z,100406.00
2018-01-10T16:28:42.342Z,100411.18
2018-01-10T16:31:09.739Z,100411.36
2018-01-10T16:33:37.145Z,100414.02
2018-01-10T16:36:04.523Z,100419.73
2018-01-10T16:38:32.722Z,100413.36
2018-01-10T16:41:00.124Z,100411.66
2018-01-10T16:43:27.515Z,100412.00
2018-01-10T16:45:54.933Z,100415.77
2018-01-10T16:48:22.336Z,100412.12
2018-01-10T16:50:49.724Z,100406.73
2018-01-10T16:53:17.123Z,100412.70
2018-01-10T16:55:44.519Z,100413.63
2018-01-10T16:58:12.008Z,100413.91
2018-01-10T17:00:39.399Z,100412.12
2018-01-10T17:03:06.798Z,100407.69
2018-01-10T17:05:34.192Z,100404.39
2018-01-10T17:08:01.595Z,100409.79
2018-01-10T17:10:28.991Z,100413.34
2018-01-10T17:12:56.393Z,100410.28
2018-01-10T17:15:23.790Z,100415.38
2018-01-10T17:17:51.216Z,100411.85
2018-01-10T17:20:18.613Z,100411.41
2018-01-10T17:22:46.003Z,100416.84
2018-01-10T17:25:13.417Z,100414.33
2018-01-10T17:27:40.814Z,100417.38
2018-01-10T17:30:08.235Z,100417.77
2018-01-10T17:32:35.626Z,100421.28
2018-01-10T17:35:03.032Z,100419.55
2018-01-10T17:37:30.427Z,100419.88
2018-01-10T17:39:57.827Z,100421.32
2018-01-10T17:42:25.228Z,100426.83
2018-01-10T17:44:52.631Z,100436.06
2018-01-10T17:47:20.034Z,100438.17
2018-01-10T17:49:47.434Z,100437.83
2018-01-10T17:52:14.832Z,100436.45
2018-01-10T17:54:42.230Z,100432.80
2018-01-10T17:57:09.630Z,100434.91
2018-01-10T17:59:37.040Z,100433.49
2018-01-10T18:02:04.434Z,100440.39
2018-01-10T18:04:31.838Z,100437.45
2018-01-10T18:06:59.252Z,100437.91
2018-01-10T18:09:26.668Z,100438.94
2018-01-10T18:11:54.071Z,100433.70
2018-01-10T18:14:21.462Z,100439.67
2018-01-10T18:16:48.871Z,100440.53
2018-01-10T18:19:16.254Z,100437.64
2018-01-10T18:21:43.678Z,100437.35
2018-01-10T18:26:48.079Z,100437.44
2018-01-10T18:29:15.477Z,100435.34
2018-01-10T18:31:42.885Z,100440.33
2018-01-10T18:34:10.387Z,100445.06
2018-01-10T18:36:37.783Z,100441.06
2018-01-10T18:39:05.224Z,100447.64
2018-01-10T18:41:32.647Z,100444.82
2018-01-10T18:44:00.048Z,100449.69
2018-01-10T18:46:27.462Z,100445.98
2018-01-10T18:48:54.859Z,100443.41
2018-01-10T18:51:22.280Z,100443.05
2018-01-10T18:53:49.666Z,100452.98
2018-01-10T18:56:17.074Z,100448.86
2018-01-10T18:58:44.551Z,100455.89
2018-01-10T19:01:11.961Z,100454.28
2018-01-10T19:03:39.351Z,100446.97
2018-01-10T19:06:06.746Z,100456.32
2018-01-10T19:08:34.183Z,100456.36
2018-01-10T19:11:01.611Z,100452.23
2018-01-10T19:13:29.006Z,100450.59
2018-01-10T19:15:56.403Z,100449.75
2018-01-10T19:18:23.830Z,100446.51
2018-01-10T19:20:51.231Z,100446.27
2018-01-10T19:23:18.635Z,100444.63
2018-01-10T19:25:46.027Z,100438.87
2018-01-10T19:28:13.435Z,100442.80
2018-01-10T19:30:40.832Z,100448.32
2018-01-10T19:33:08.236Z,100455.27
2018-01-10T19:35:35.629Z,100458.11
2018-01-10T19:38:03.028Z,100467.42
2018-01-10T19:40:30.420Z,100474.30
2018-01-10T19:42:57.822Z,100481.53
2018-01-10T19:45:25.239Z,100483.58
2018-01-10T19:47:52.645Z,100480.09
2018-01-10T19:50:20.040Z,100479.36
2018-01-10T19:52:47.435Z,100479.31
2018-01-10T19:55:14.834Z,100475.86
2018-01-10T19:57:42.239Z,100479.48
2018-01-10T20:00:09.634Z,100474.86
2018-01-10T20:02:37.044Z,100473.41
2018-01-10T20:05:04.443Z,100475.20
2018-01-10T20:07:31.832Z,100461.13
2018-01-10T20:09:59.235Z,100465.95
2018-01-10T20:12:26.639Z,100458.66
2018-01-10T20:14:54.041Z,100461.48
2018-01-10T20:17:21.432Z,100462.95
2018-01-10T20:19:48.837Z,100460.59
2018-01-10T20:22:16.229Z,100464.52
2018-01-10T20:24:43.623Z,100470.23
2018-01-10T20:27:11.014Z,100477.27
2018-01-10T20:29:38.419Z,100476.51
2018-01-10T20:32:05.870Z,100484.37
2018-01-10T20:34:33.270Z,100476.98
2018-01-10T20:37:00.683Z,100482.13
2018-01-10T20:39:28.119Z,100475.49
2018-01-10T20:41:55.495Z,100481.33
2018-01-10T20:44:22.917Z,100482.75
2018-01-10T20:46:50.314Z,100483.55
2018-01-10T20:49:17.712Z,100490.15
2018-01-10T20:51:45.111Z,100493.20
2018-01-10T20:54:12.493Z,100496.97
2018-01-10T20:56:39.901Z,100494.98
2018-01-10T20:59:07.303Z,100502.89
2018-01-10T21:01:34.706Z,100499.34
2018-01-10T21:04:02.096Z,100503.02
2018-01-10T21:06:29.502Z,100503.48
2018-01-10T21:08:56.900Z,100505.42
2018-01-10T21:11:24.315Z,100501.80
2018-01-10T21:13:51.706Z,100503.69
2018-01-10T21:16:19.111Z,100498.97
2018-01-10T21:18:46.515Z,100508.27
2018-01-10T21:21:13.922Z,100507.16
2018-01-10T21:23:41.338Z,100507.05
2018-01-10T21:26:08.771Z,100507.25
2018-01-10T21:28:36.181Z,100508.91
2018-01-10T21:31:03.699Z,100507.48
2018-01-10T21:33:31.136Z,100502.78
2018-01-10T21:35:58.542Z,100509.67
2018-01-10T21:38:25.955Z,100509.19
2018-01-10T21:40:53.330Z,100507.28
2018-01-10T21:43:20.734Z,100512.35
2018-01-10T21:45:48.147Z,100514.95
2018-01-10T21:48:15.543Z,100514.58
2018-01-10T21:50:42.970Z,100519.33
2018-01-10T21:53:10.374Z,100526.24
2018-01-10T21:55:37.862Z,100525.57
2018-01-10T21:58:05.267Z,100527.03
2018-01-10T22:00:32.663Z,100532.45
2018-01-10T22:03:00.111Z,100528.91
2018-01-10T22:05:27.523Z,100534.23
2018-01-10T22:07:54.931Z,100531.28
2018-01-10T22:10:22.342Z,100534.51
2018-01-10T22:12:49.748Z,100540.25
2018-01-10T22:15:17.185Z,100538.70
2018-01-10T22:17:44.582Z,100536.34
2018-01-10T22:22:38.667Z,100523.33
2018-01-10T22:25:06.064Z,100526.13
2018-01-10T22:27:33.471Z,100530.60
2018-01-10T22:30:00.876Z,100534.30
2018-01-10T22:32:28.271Z,100528.16
2018-01-10T22:34:55.671Z,100532.74
2018-01-10T22:37:23.067Z,100532.79
2018-01-10T22:39:50.534Z,100540.38
2018-01-10T22:42:17.914Z,100538.44
2018-01-10T22:44:45.342Z,100540.64
2018-01-10T22:47:12.742Z,100544.64
2018-01-10T22:49:40.135Z,100542.88
2018-01-10T22:52:07.527Z,100544.89
2018-01-10T22:54:34.928Z,100545.91
2018-01-10T22:57:02.319Z,100544.33
2018-01-10T22:59:29.730Z,100543.75
2018-01-10T23:01:57.118Z,100545.55
2018-01-10T23:04:24.512Z,100540.24
2018-01-10T23:06:51.908Z,100545.98
2018-01-10T23:09:19.290Z,100541.08
2018-01-10T23:11:46.737Z,100546.73
2018-01-10T23:14:14.083Z,100538.83
2018-01-10T23:19:08.167Z,100546.06
2018-01-10T23:21:35.560Z,100544.50
2018-01-10T23:24:02.971Z,100543.05
2018-01-10T23:26:30.371Z,100542.42
2018-01-10T23:28:57.763Z,100546.53
2018-01-10T23:31:25.172Z,100536.15
2018-01-10T23:33:52.567Z,100540.50
2018-01-10T23:36:19.967Z,100543.99
2018-01-10T23:38:47.358Z,100543.05
2018-01-10T23:41:14.854Z,100554.95
2018-01-10T23:43:42.243Z,100554.84
2018-01-10T23:46:09.638Z,100559.22
2018-01-10T23:48:37.030Z,100565.59
2018-01-10T23:51:04.437Z,100564.28
2018-01-10T23:53:31.826Z,100573.08
2018-01-10T23:55:59.226Z,100573.01
2018-01-10T23:58:26.631Z,100572.55
